createdAt,value
2018-09-21T00:19:17.666Z,15.71
2018-09-21T00:21:47.135Z,15.72
2018-09-21T00:24:16.878Z,15.67
2018-09-21T00:44:07.952Z,15.49
2018-09-21T00:46:37.678Z,15.45
2018-09-21T00:49:07.427Z,15.40
2018-09-21T00:51:37.807Z,15.39
2018-09-21T00:54:07.606Z,15.34
2018-09-21T00:56:37.011Z,15.38
2018-09-21T00:59:07.459Z,15.44
2018-09-21T01:01:37.051Z,15.34
2018-09-21T01:04:06.753Z,15.36
2018-09-21T01:06:36.439Z,15.27
2018-09-21T01:09:08.680Z,15.30
2018-09-21T01:11:38.780Z,15.25
2018-09-21T01:14:09.113Z,15.23
2018-09-21T01:16:38.994Z,15.17
2018-09-21T01:19:08.849Z,15.22
2018-09-21T01:21:38.374Z,15.20
2018-09-21T01:24:08.020Z,15.12
2018-09-21T01:26:38.241Z,15.06
2018-09-21T01:58:04.578Z,14.94
2018-09-21T02:00:33.915Z,14.91
2018-09-21T02:03:03.494Z,14.84
2018-09-21T02:05:33.025Z,14.86
2018-09-21T02:08:02.746Z,14.87
2018-09-21T02:10:32.404Z,14.83
2018-09-21T02:13:01.762Z,14.75
2018-09-21T02:15:31.778Z,14.89
2018-09-21T02:35:23.749Z,14.59
2018-09-21T02:37:53.753Z,14.57
2018-09-21T02:40:23.215Z,14.55
2018-09-21T02:42:52.457Z,14.58
2018-09-21T02:45:22.144Z,14.71
2018-09-21T02:47:52.225Z,14.63
2018-09-21T03:07:44.298Z,14.53
2018-09-21T03:10:13.751Z,14.54
2018-09-21T03:12:43.202Z,14.55
2018-09-21T03:32:35.350Z,14.30
2018-09-21T03:35:04.950Z,14.30
2018-09-21T03:37:34.280Z,14.32
2018-09-21T03:40:04.208Z,14.27
2018-09-21T03:42:33.533Z,14.23
2018-09-21T03:45:02.993Z,14.28
2018-09-21T04:04:54.144Z,14.18
2018-09-21T04:24:46.414Z,13.99
2018-09-21T04:27:16.238Z,14.05
2018-09-21T04:29:45.805Z,14.06
2018-09-21T04:32:15.438Z,14.07
2018-09-21T04:34:45.369Z,14.24
2018-09-21T04:37:14.733Z,14.14
2018-09-21T04:39:44.138Z,14.09
2018-09-21T04:42:14.074Z,14.11
2018-09-21T04:44:43.556Z,14.05
2018-09-21T05:04:34.834Z,14.29
2018-09-21T05:07:05.300Z,14.32
2018-09-21T05:09:34.845Z,14.30
2018-09-21T05:12:04.714Z,14.41
2018-09-21T05:14:34.940Z,14.48
2018-09-21T05:17:05.793Z,14.55
2018-09-21T05:19:35.839Z,14.58
2018-09-21T05:22:05.817Z,14.61
2018-09-21T05:24:36.213Z,14.75
2018-09-21T05:27:06.291Z,14.65
2018-09-21T05:29:36.187Z,14.77
2018-09-21T05:32:06.156Z,14.77
2018-09-21T05:34:36.334Z,14.84
2018-09-21T05:37:07.497Z,14.91
2018-09-21T05:39:37.046Z,14.96
2018-09-21T05:42:09.780Z,15.00
2018-09-21T05:44:40.499Z,15.08
2018-09-21T05:47:10.139Z,15.17
2018-09-21T05:49:39.723Z,15.28
2018-09-21T05:52:09.969Z,15.37
2018-09-21T05:54:39.461Z,15.46
2018-09-21T05:57:08.979Z,15.46
2018-09-21T05:59:38.786Z,15.54
2018-09-21T06:02:08.491Z,15.55
2018-09-21T06:04:37.982Z,15.47
2018-09-21T06:07:07.415Z,15.51
2018-09-21T06:09:36.786Z,15.63
2018-09-21T06:12:06.193Z,15.82
2018-09-21T06:14:36.223Z,15.80
2018-09-21T06:17:05.960Z,15.90
2018-09-21T06:19:35.432Z,15.97
2018-09-21T06:22:05.170Z,15.95
2018-09-21T06:24:34.857Z,16.01
2018-09-21T06:27:04.457Z,15.86
2018-09-21T06:29:33.977Z,15.83
2018-09-21T06:49:25.370Z,16.41
2018-09-21T07:09:17.498Z,16.99
2018-09-21T07:11:46.889Z,17.01
2018-09-21T07:14:16.368Z,17.13
2018-09-21T07:16:46.107Z,17.10
2018-09-21T07:19:15.684Z,17.12
2018-09-21T07:21:45.150Z,17.28
2018-09-21T07:24:15.303Z,17.36
2018-09-21T07:26:44.819Z,17.49
2018-09-21T07:29:14.530Z,17.51
2018-09-21T07:31:44.259Z,17.52
2018-09-21T07:34:13.684Z,17.57
2018-09-21T07:36:43.366Z,17.60
2018-09-21T07:56:36.181Z,18.21
2018-09-21T07:59:05.636Z,18.33
2018-09-21T08:01:36.020Z,18.26
2018-09-21T08:04:05.959Z,18.41
2018-09-21T08:06:35.977Z,18.51
2018-09-21T08:26:27.354Z,18.95
2018-09-21T08:46:19.001Z,19.99
2018-09-21T08:48:48.904Z,19.97
2018-09-21T08:51:18.389Z,19.83
2018-09-21T08:53:47.924Z,19.99
2018-09-21T08:56:17.707Z,20.04
2018-09-21T08:58:47.843Z,20.17
2018-09-21T09:18:38.987Z,21.18
2018-09-21T09:21:08.577Z,21.33
2018-09-21T09:23:38.251Z,21.31
2018-09-21T09:26:08.346Z,21.42
2018-09-21T09:28:37.724Z,21.53
2018-09-21T09:31:07.418Z,21.63
2018-09-21T09:33:36.865Z,21.54
2018-09-21T09:36:06.266Z,21.51
2018-09-21T09:38:35.713Z,21.73
2018-09-21T09:41:05.661Z,21.88
2018-09-21T09:43:34.906Z,22.05
2018-09-21T09:46:04.554Z,22.08
2018-09-21T09:48:34.400Z,22.38
2018-09-21T09:51:04.385Z,22.38
2018-09-21T09:53:33.798Z,22.57
2018-09-21T09:56:03.212Z,22.64
2018-09-21T10:15:54.697Z,23.29
2018-09-21T10:35:46.495Z,23.26
2018-09-21T10:38:16.082Z,23.44
2018-09-21T10:58:08.016Z,24.12
2018-09-21T11:00:37.351Z,24.10
2018-09-21T11:03:06.954Z,24.30
2018-09-21T11:05:36.382Z,24.36
2018-09-21T11:08:05.971Z,24.64
2018-09-21T11:27:58.067Z,25.38
2018-09-21T11:30:27.630Z,25.33
2018-09-21T11:32:57.022Z,25.52
2018-09-21T11:35:27.049Z,25.52
2018-09-21T11:37:56.543Z,25.72
2018-09-21T11:40:26.042Z,26.03
2018-09-21T11:42:56.206Z,26.17
2018-09-21T11:45:26.149Z,26.19
2018-09-21T11:47:55.856Z,26.24
2018-09-21T11:50:26.029Z,26.25
2018-09-21T11:52:56.003Z,26.00
2018-09-21T11:55:25.487Z,25.78
2018-09-21T11:57:55.517Z,25.53
2018-09-21T12:17:46.493Z,24.87
2018-09-21T12:20:16.035Z,24.90
2018-09-21T12:22:46.253Z,24.82
2018-09-21T12:25:16.154Z,24.69
2018-09-21T12:27:46.313Z,24.84
2018-09-21T12:30:15.630Z,24.74
2018-09-21T12:32:45.464Z,24.82
2018-09-21T12:35:15.323Z,24.76
2018-09-21T12:37:45.129Z,24.63
2018-09-21T12:40:14.511Z,24.67
2018-09-21T12:42:44.133Z,24.65
2018-09-21T12:45:13.947Z,24.58
2018-09-21T12:47:43.483Z,24.67
2018-09-21T12:50:13.060Z,24.67
2018-09-21T12:52:42.476Z,24.84
2018-09-21T12:55:12.253Z,24.81
2018-09-21T12:57:42.317Z,24.88
2018-09-21T13:00:11.978Z,24.93
2018-09-21T13:20:04.595Z,25.25
2018-09-21T13:22:34.059Z,25.40
2018-09-21T13:25:03.688Z,25.46
2018-09-21T13:27:33.133Z,25.57
2018-09-21T13:30:02.475Z,25.45
2018-09-21T13:32:31.886Z,25.53
2018-09-21T13:35:01.607Z,25.51
2018-09-21T14:03:36.062Z,27.44
2018-09-21T14:06:06.330Z,27.20
2018-09-21T14:08:36.485Z,27.19
2018-09-21T14:11:06.298Z,27.00
2018-09-21T14:13:36.165Z,26.75
2018-09-21T14:16:05.827Z,27.10
2018-09-21T14:18:35.638Z,27.69
2018-09-21T14:21:05.342Z,28.30
2018-09-21T14:23:34.791Z,28.51
2018-09-21T14:26:05.481Z,28.85
2018-09-21T14:28:35.349Z,28.83
2018-09-21T14:31:04.759Z,28.80
2018-09-21T14:33:34.381Z,28.99
2018-09-21T14:36:03.982Z,29.16
2018-09-21T14:55:56.547Z,26.57
2018-09-21T15:15:49.634Z,25.95
2018-09-21T15:35:41.336Z,24.90
2018-09-21T15:38:10.827Z,24.92
2018-09-21T15:40:40.286Z,24.66
2018-09-21T15:43:10.521Z,24.57
2018-09-21T16:03:00.203Z,23.74
2018-09-21T16:05:30.021Z,23.65
2018-09-21T16:25:22.364Z,23.01
2018-09-21T16:27:52.415Z,23.03
2018-09-21T16:30:22.191Z,22.92
2018-09-21T16:32:51.628Z,22.79
2018-09-21T16:35:21.323Z,22.64
2018-09-21T16:37:51.122Z,22.48
2018-09-21T16:40:20.649Z,22.32
2018-09-21T16:42:50.371Z,22.39
2018-09-21T16:45:20.123Z,22.41
2018-09-21T16:47:49.994Z,22.41
2018-09-21T16:50:19.441Z,22.39
2018-09-21T16:52:49.101Z,22.31
2018-09-21T16:55:18.489Z,22.15
2018-09-21T16:57:48.431Z,22.04
2018-09-21T17:17:39.474Z,21.71
2018-09-21T17:37:32.176Z,21.29
2018-09-21T17:40:02.134Z,21.21
2018-09-21T17:42:31.454Z,21.28
2018-09-21T17:45:01.286Z,21.18
2018-09-21T17:47:30.754Z,21.18
2018-09-21T17:50:00.283Z,21.15
2018-09-21T17:52:29.982Z,21.03
2018-09-21T17:54:59.714Z,21.03
2018-09-21T18:14:52.364Z,20.72
2018-09-21T18:17:22.140Z,20.69
2018-09-21T18:19:51.947Z,20.70
2018-09-21T18:22:21.810Z,20.64
2018-09-21T18:24:51.494Z,20.55
2018-09-21T18:27:21.306Z,20.52
2018-09-21T18:29:51.150Z,20.52
2018-09-21T18:32:20.616Z,20.45
2018-09-21T18:34:50.341Z,20.46
2018-09-21T18:37:20.511Z,20.49
2018-09-21T18:39:49.978Z,20.53
2018-09-21T18:42:19.575Z,20.49
2018-09-21T19:02:10.783Z,20.13
2018-09-21T19:04:40.205Z,20.05
2018-09-21T19:07:15.442Z,20.06
2018-09-21T19:27:06.495Z,19.57
2018-09-21T19:29:36.009Z,19.49
2018-09-21T19:32:05.779Z,19.28
2018-09-21T19:34:35.223Z,19.06
2018-09-21T19:37:04.743Z,19.06
2018-09-21T19:39:34.305Z,19.12
2018-09-21T19:42:04.144Z,19.09
2018-09-21T20:01:52.940Z,18.84
2018-09-21T20:04:22.642Z,18.79
2018-09-21T20:24:14.634Z,18.50
2018-09-21T20:26:44.085Z,18.45
2018-09-21T20:29:13.548Z,18.37
2018-09-21T20:31:48.093Z,18.36
2018-09-21T20:45:50.477Z,18.27
2018-09-21T20:48:19.987Z,18.03
2018-09-21T20:50:49.366Z,18.14
2018-09-21T20:53:18.975Z,17.99
2018-09-21T20:55:48.730Z,17.96
2018-09-21T20:58:18.074Z,18.05
2018-09-21T21:00:47.642Z,17.97
2018-09-21T21:03:17.352Z,17.94
2018-09-21T21:05:46.834Z,17.85
2018-09-21T21:08:16.281Z,17.87
2018-09-21T21:10:45.753Z,17.89
2018-09-21T21:13:15.308Z,17.85
2018-09-21T21:15:44.740Z,17.74
2018-09-21T21:18:14.070Z,17.73
2018-09-21T21:20:43.741Z,17.76
2018-09-21T21:23:13.154Z,17.61
2018-09-21T21:25:42.892Z,17.59
2018-09-21T21:28:12.785Z,17.57
2018-09-21T21:30:42.314Z,17.53
2018-09-21T21:33:12.120Z,17.50
2018-09-21T21:35:41.901Z,17.50
2018-09-21T21:38:11.515Z,17.50
2018-09-21T21:40:41.458Z,17.43
2018-09-21T21:43:11.214Z,17.44
2018-09-21T21:45:40.893Z,17.47
2018-09-21T21:48:10.799Z,17.50
2018-09-21T21:50:40.507Z,17.52
2018-09-21T21:53:10.513Z,17.54
2018-09-21T21:55:40.749Z,17.53
2018-09-21T21:58:10.297Z,17.52
2018-09-21T22:00:45.714Z,17.50
2018-09-21T22:03:15.370Z,17.41
2018-09-21T22:05:44.876Z,17.43
2018-09-21T22:08:14.791Z,17.38
2018-09-21T22:10:44.498Z,17.40
2018-09-21T22:13:19.611Z,17.32
2018-09-21T22:15:49.254Z,17.34
2018-09-21T22:18:18.886Z,17.34
2018-09-21T22:20:49.627Z,17.29
2018-09-21T22:23:19.170Z,17.24
2018-09-21T22:25:48.705Z,17.20
2018-09-21T22:28:18.650Z,17.22
2018-09-21T22:30:48.143Z,17.13
2018-09-21T22:33:17.834Z,17.12
2018-09-21T22:35:47.638Z,17.16
2018-09-21T22:38:17.063Z,17.07
2018-09-21T22:40:46.782Z,17.11
2018-09-21T22:43:16.402Z,17.01
2018-09-21T22:45:46.160Z,17.01
2018-09-21T22:48:15.908Z,16.99
2018-09-21T22:50:45.658Z,16.85
2018-09-21T22:53:15.219Z,16.89
2018-09-21T22:55:44.849Z,16.86
2018-09-21T22:58:14.547Z,16.82
2018-09-21T23:00:44.539Z,16.77
2018-09-21T23:03:14.391Z,16.85
2018-09-21T23:05:44.153Z,16.82
2018-09-21T23:08:13.595Z,16.71
2018-09-21T23:10:43.091Z,16.68
2018-09-21T23:13:13.078Z,16.58
2018-09-21T23:15:42.353Z,16.68
2018-09-21T23:18:11.830Z,16.72
2018-09-21T23:20:41.454Z,16.66
2018-09-21T23:23:10.842Z,16.60
2018-09-21T23:25:40.342Z,16.61
2018-09-21T23:28:10.607Z,16.47
2018-09-21T23:30:39.905Z,16.52
2018-09-21T23:33:09.284Z,16.45
2018-09-21T23:35:39.079Z,16.48
2018-09-21T23:38:08.510Z,16.45
2018-09-21T23:40:37.989Z,16.50
2018-09-21T23:43:07.926Z,16.53
2018-09-21T23:45:37.383Z,16.54
2018-09-21T23:48:06.877Z,16.50
2018-09-21T23:50:36.650Z,16.48
2018-09-21T23:53:06.166Z,16.50
2018-09-21T23:55:35.482Z,16.41
2018-09-21T23:58:05.449Z,16.45
